KAIZ/AIZ METAR and TAF weather

Enter ICAO airport designator
Station Type Date Time Source
KAIZ METAR 2018/12/13 19:56 UTC NOAA

KAIZ 131956Z AUTO 00000KT 10SM -RA OVC009 09/09 A2988 RMK AO2 RAB50 SLP119 P0000 T00940089


Station Type Date Time Source
KAIZ Decoded METAR 2018/12/13 19:56 UTC NOAA

Kaiser Lake Ozark, Lee C Fine Memorial Airport, MO, United States (KAIZ) 38-06N 092-33W
Dec 13, 2018 - 02:56 PM EST / 2018.12.13 1956 UTC
Wind: Calm:0
Visibility: 10 mile(s):0
Sky conditions: overcast
Weather: light rain
Precipitation last hour: A trace
Temperature: 48.9 F (9.4 C)
Dew Point: 48.0 F (8.9 C)
Relative Humidity: 96%
Pressure (altimeter): 29.88 in. Hg (1011 hPa)
ob: KAIZ 131956Z AUTO 00000KT 10SM -RA OVC009 09/09 A2988 RMK AO2 RAB50 SLP119 P0000 T00940089
cycle: 20

Station Type Date Time Source
KAIZ TAF UTC NOAA

Error!


Example: see airport list